sensor_id;sensor_type;location;lat;lon;timestamp;P1;durP1;ratioP1;P2;durP2;ratioP2
3916;SDS011;1973;50.518;7.318;2024-01-25T00:00:24;33.70;;;7.20;;
3916;SDS011;1973;50.518;7.318;2024-01-25T00:02:50;27.37;;;6.40;;
3916;SDS011;1973;50.518;7.318;2024-01-25T00:05:17;23.53;;;6.33;;
3916;SDS011;1973;50.518;7.318;2024-01-25T00:07:45;26.40;;;8.87;;
3916;SDS011;1973;50.518;7.318;2024-01-25T00:10:13;23.30;;;6.50;;
3916;SDS011;1973;50.518;7.318;2024-01-25T00:12:41;21.53;;;6.20;;
3916;SDS011;1973;50.518;7.318;2024-01-25T00:15:09;16.13;;;5.60;;
3916;SDS011;1973;50.518;7.318;2024-01-25T00:17:36;19.83;;;6.27;;
3916;SDS011;1973;50.518;7.318;2024-01-25T00:20:03;27.30;;;6.73;;
3916;SDS011;1973;50.518;7.318;2024-01-25T00:22:31;20.57;;;7.40;;
3916;SDS011;1973;50.518;7.318;2024-01-25T00:24:58;30.90;;;7.30;;
3916;SDS011;1973;50.518;7.318;2024-01-25T00:27:26;25.13;;;8.00;;
3916;SDS011;1973;50.518;7.318;2024-01-25T00:29:53;25.03;;;7.80;;
3916;SDS011;1973;50.518;7.318;2024-01-25T00:32:19;26.70;;;7.27;;
3916;SDS011;1973;50.518;7.318;2024-01-25T00:34:46;29.93;;;7.03;;
3916;SDS011;1973;50.518;7.318;2024-01-25T00:37:13;23.53;;;7.50;;
3916;SDS011;1973;50.518;7.318;2024-01-25T00:39:40;27.80;;;8.63;;
3916;SDS011;1973;50.518;7.318;2024-01-25T00:42:07;20.77;;;8.20;;
3916;SDS011;1973;50.518;7.318;2024-01-25T00:44:33;26.20;;;6.90;;
3916;SDS011;1973;50.518;7.318;2024-01-25T00:47:00;31.37;;;6.97;;
3916;SDS011;1973;50.518;7.318;2024-01-25T00:49:27;24.63;;;8.20;;
3916;SDS011;1973;50.518;7.318;2024-01-25T00:51:58;26.37;;;7.27;;
3916;SDS011;1973;50.518;7.318;2024-01-25T00:54:26;29.80;;;7.00;;
3916;SDS011;1973;50.518;7.318;2024-01-25T00:56:53;25.63;;;7.07;;
3916;SDS011;1973;50.518;7.318;2024-01-25T00:59:20;25.87;;;7.03;;
3916;SDS011;1973;50.518;7.318;2024-01-25T01:01:47;23.93;;;7.30;;
3916;SDS011;1973;50.518;7.318;2024-01-25T01:04:15;25.40;;;6.90;;
3916;SDS011;1973;50.518;7.318;2024-01-25T01:06:42;39.77;;;8.30;;
3916;SDS011;1973;50.518;7.318;2024-01-25T01:09:10;22.70;;;6.80;;
3916;SDS011;1973;50.518;7.318;2024-01-25T01:11:36;25.03;;;6.90;;
3916;SDS011;1973;50.518;7.318;2024-01-25T01:14:03;35.43;;;8.17;;
3916;SDS011;1973;50.518;7.318;2024-01-25T01:16:29;22.87;;;6.57;;
3916;SDS011;1973;50.518;7.318;2024-01-25T01:18:59;27.30;;;7.97;;
3916;SDS011;1973;50.518;7.318;2024-01-25T01:21:32;32.00;;;7.13;;
3916;SDS011;1973;50.518;7.318;2024-01-25T01:23:59;26.03;;;7.33;;
3916;SDS011;1973;50.518;7.318;2024-01-25T01:26:26;24.80;;;6.33;;
3916;SDS011;1973;50.518;7.318;2024-01-25T01:28:53;27.70;;;7.80;;
3916;SDS011;1973;50.518;7.318;2024-01-25T01:31:19;30.40;;;7.13;;
3916;SDS011;1973;50.518;7.318;2024-01-25T01:33:46;28.37;;;7.47;;
3916;SDS011;1973;50.518;7.318;2024-01-25T01:36:13;25.27;;;6.53;;
3916;SDS011;1973;50.518;7.318;2024-01-25T01:38:40;28.20;;;7.23;;
3916;SDS011;1973;50.518;7.318;2024-01-25T01:41:06;29.47;;;7.37;;
3916;SDS011;1973;50.518;7.318;2024-01-25T01:43:36;26.23;;;7.60;;
3916;SDS011;1973;50.518;7.318;2024-01-25T01:46:04;28.37;;;7.70;;
3916;SDS011;1973;50.518;7.318;2024-01-25T01:48:40;30.40;;;7.70;;
3916;SDS011;1973;50.518;7.318;2024-01-25T01:51:08;25.87;;;7.67;;
3916;SDS011;1973;50.518;7.318;2024-01-25T01:53:35;30.13;;;7.53;;
3916;SDS011;1973;50.518;7.318;2024-01-25T01:56:02;26.47;;;5.50;;
3916;SDS011;1973;50.518;7.318;2024-01-25T01:58:29;37.33;;;7.90;;
3916;SDS011;1973;50.518;7.318;2024-01-25T02:00:57;35.67;;;7.23;;
3916;SDS011;1973;50.518;7.318;2024-01-25T02:03:26;24.27;;;6.47;;
3916;SDS011;1973;50.518;7.318;2024-01-25T02:05:53;31.23;;;8.37;;
3916;SDS011;1973;50.518;7.318;2024-01-25T02:08:20;21.63;;;5.90;;
3916;SDS011;1973;50.518;7.318;2024-01-25T02:10:47;20.30;;;6.90;;
3916;SDS011;1973;50.518;7.318;2024-01-25T02:13:13;25.97;;;7.20;;
3916;SDS011;1973;50.518;7.318;2024-01-25T02:15:40;22.73;;;6.70;;
3916;SDS011;1973;50.518;7.318;2024-01-25T02:18:06;25.20;;;6.50;;
3916;SDS011;1973;50.518;7.318;2024-01-25T02:20:33;31.20;;;7.00;;
3916;SDS011;1973;50.518;7.318;2024-01-25T02:25:30;33.67;;;7.20;;
3916;SDS011;1973;50.518;7.318;2024-01-25T02:27:57;33.47;;;6.77;;
3916;SDS011;1973;50.518;7.318;2024-01-25T02:30:23;29.70;;;7.50;;
3916;SDS011;1973;50.518;7.318;2024-01-25T02:32:50;37.63;;;7.13;;
3916;SDS011;1973;50.518;7.318;2024-01-25T02:35:17;29.00;;;6.50;;
3916;SDS011;1973;50.518;7.318;2024-01-25T02:37:43;29.67;;;6.87;;
3916;SDS011;1973;50.518;7.318;2024-01-25T02:40:10;28.50;;;7.10;;
3916;SDS011;1973;50.518;7.318;2024-01-25T02:42:37;27.27;;;6.40;;
3916;SDS011;1973;50.518;7.318;2024-01-25T02:45:04;28.30;;;6.93;;
3916;SDS011;1973;50.518;7.318;2024-01-25T02:47:30;30.93;;;6.27;;
3916;SDS011;1973;50.518;7.318;2024-01-25T02:49:57;27.63;;;6.60;;
3916;SDS011;1973;50.518;7.318;2024-01-25T02:52:24;28.63;;;6.73;;
3916;SDS011;1973;50.518;7.318;2024-01-25T02:54:50;34.87;;;7.80;;
3916;SDS011;1973;50.518;7.318;2024-01-25T02:57:17;26.93;;;7.30;;
3916;SDS011;1973;50.518;7.318;2024-01-25T02:59:44;30.50;;;7.00;;
3916;SDS011;1973;50.518;7.318;2024-01-25T03:02:10;23.20;;;5.80;;
3916;SDS011;1973;50.518;7.318;2024-01-25T03:04:37;31.33;;;8.07;;
3916;SDS011;1973;50.518;7.318;2024-01-25T03:07:04;30.30;;;6.90;;
3916;SDS011;1973;50.518;7.318;2024-01-25T03:09:30;38.17;;;6.90;;
3916;SDS011;1973;50.518;7.318;2024-01-25T03:11:57;28.60;;;6.70;;
3916;SDS011;1973;50.518;7.318;2024-01-25T03:14:24;26.00;;;7.30;;
3916;SDS011;1973;50.518;7.318;2024-01-25T03:16:50;24.77;;;6.23;;
3916;SDS011;1973;50.518;7.318;2024-01-25T03:19:17;37.67;;;7.37;;
3916;SDS011;1973;50.518;7.318;2024-01-25T03:21:44;32.67;;;7.00;;
3916;SDS011;1973;50.518;7.318;2024-01-25T03:24:11;27.00;;;6.43;;
3916;SDS011;1973;50.518;7.318;2024-01-25T03:26:37;28.30;;;7.13;;
3916;SDS011;1973;50.518;7.318;2024-01-25T03:29:04;24.47;;;6.30;;
3916;SDS011;1973;50.518;7.318;2024-01-25T03:31:30;26.20;;;6.60;;
3916;SDS011;1973;50.518;7.318;2024-01-25T03:33:57;36.97;;;6.87;;
3916;SDS011;1973;50.518;7.318;2024-01-25T03:36:24;23.53;;;7.93;;
3916;SDS011;1973;50.518;7.318;2024-01-25T03:38:50;30.07;;;6.73;;
3916;SDS011;1973;50.518;7.318;2024-01-25T03:41:17;32.67;;;7.40;;
3916;SDS011;1973;50.518;7.318;2024-01-25T03:43:43;32.30;;;7.60;;
3916;SDS011;1973;50.518;7.318;2024-01-25T03:46:14;24.07;;;6.53;;
3916;SDS011;1973;50.518;7.318;2024-01-25T03:48:41;28.83;;;6.80;;
3916;SDS011;1973;50.518;7.318;2024-01-25T03:51:07;31.00;;;7.57;;
3916;SDS011;1973;50.518;7.318;2024-01-25T03:53:34;34.03;;;8.70;;
3916;SDS011;1973;50.518;7.318;2024-01-25T03:56:01;35.97;;;9.13;;
3916;SDS011;1973;50.518;7.318;2024-01-25T03:58:28;25.43;;;7.10;;
3916;SDS011;1973;50.518;7.318;2024-01-25T04:00:54;27.00;;;7.90;;
3916;SDS011;1973;50.518;7.318;2024-01-25T04:03:21;30.63;;;7.57;;
3916;SDS011;1973;50.518;7.318;2024-01-25T04:05:48;29.37;;;7.87;;
3916;SDS011;1973;50.518;7.318;2024-01-25T04:08:15;29.07;;;7.50;;
3916;SDS011;1973;50.518;7.318;2024-01-25T04:10:42;35.37;;;9.43;;
3916;SDS011;1973;50.518;7.318;2024-01-25T04:13:08;23.30;;;7.03;;
3916;SDS011;1973;50.518;7.318;2024-01-25T04:15:35;33.40;;;8.00;;
3916;SDS011;1973;50.518;7.318;2024-01-25T04:18:02;40.53;;;8.47;;
3916;SDS011;1973;50.518;7.318;2024-01-25T04:20:29;31.73;;;6.60;;
3916;SDS011;1973;50.518;7.318;2024-01-25T04:22:55;28.40;;;7.50;;
3916;SDS011;1973;50.518;7.318;2024-01-25T04:25:22;28.23;;;7.73;;
3916;SDS011;1973;50.518;7.318;2024-01-25T04:27:49;32.07;;;8.43;;
3916;SDS011;1973;50.518;7.318;2024-01-25T04:30:15;29.93;;;7.73;;
3916;SDS011;1973;50.518;7.318;2024-01-25T04:32:42;42.53;;;8.30;;
3916;SDS011;1973;50.518;7.318;2024-01-25T04:35:09;39.53;;;7.57;;
3916;SDS011;1973;50.518;7.318;2024-01-25T04:37:36;26.50;;;6.90;;
3916;SDS011;1973;50.518;7.318;2024-01-25T04:40:03;27.33;;;7.70;;
3916;SDS011;1973;50.518;7.318;2024-01-25T04:42:31;29.40;;;7.07;;
3916;SDS011;1973;50.518;7.318;2024-01-25T04:44:58;28.93;;;7.20;;
3916;SDS011;1973;50.518;7.318;2024-01-25T04:47:24;33.70;;;7.27;;
3916;SDS011;1973;50.518;7.318;2024-01-25T04:49:51;23.13;;;7.23;;
3916;SDS011;1973;50.518;7.318;2024-01-25T04:52:17;25.73;;;7.10;;
3916;SDS011;1973;50.518;7.318;2024-01-25T04:54:44;22.93;;;7.17;;
3916;SDS011;1973;50.518;7.318;2024-01-25T04:57:10;37.07;;;8.90;;
3916;SDS011;1973;50.518;7.318;2024-01-25T04:59:37;38.77;;;8.07;;
3916;SDS011;1973;50.518;7.318;2024-01-25T05:02:03;30.10;;;8.47;;
3916;SDS011;1973;50.518;7.318;2024-01-25T05:04:30;30.77;;;7.73;;
3916;SDS011;1973;50.518;7.318;2024-01-25T05:06:58;25.37;;;8.43;;
3916;SDS011;1973;50.518;7.318;2024-01-25T05:09:24;31.37;;;7.43;;
3916;SDS011;1973;50.518;7.318;2024-01-25T05:11:51;25.73;;;8.73;;
3916;SDS011;1973;50.518;7.318;2024-01-25T05:14:18;26.20;;;7.77;;
3916;SDS011;1973;50.518;7.318;2024-01-25T05:16:44;35.37;;;8.50;;
3916;SDS011;1973;50.518;7.318;2024-01-25T05:19:11;31.33;;;7.93;;
3916;SDS011;1973;50.518;7.318;2024-01-25T05:21:37;39.13;;;9.47;;
3916;SDS011;1973;50.518;7.318;2024-01-25T05:24:04;24.77;;;7.00;;
3916;SDS011;1973;50.518;7.318;2024-01-25T05:26:31;29.60;;;7.87;;
3916;SDS011;1973;50.518;7.318;2024-01-25T05:28:57;28.60;;;7.80;;
3916;SDS011;1973;50.518;7.318;2024-01-25T05:31:24;33.70;;;8.60;;
3916;SDS011;1973;50.518;7.318;2024-01-25T05:33:51;35.67;;;8.30;;
3916;SDS011;1973;50.518;7.318;2024-01-25T05:36:18;32.43;;;8.30;;
3916;SDS011;1973;50.518;7.318;2024-01-25T05:38:44;25.43;;;7.03;;
3916;SDS011;1973;50.518;7.318;2024-01-25T05:41:11;29.27;;;8.70;;
3916;SDS011;1973;50.518;7.318;2024-01-25T05:43:37;32.03;;;8.70;;
3916;SDS011;1973;50.518;7.318;2024-01-25T05:46:04;35.40;;;7.63;;
3916;SDS011;1973;50.518;7.318;2024-01-25T05:48:30;29.03;;;8.60;;
3916;SDS011;1973;50.518;7.318;2024-01-25T05:50:57;29.90;;;7.60;;
3916;SDS011;1973;50.518;7.318;2024-01-25T05:53:24;41.87;;;9.30;;
3916;SDS011;1973;50.518;7.318;2024-01-25T05:55:50;37.00;;;8.67;;
3916;SDS011;1973;50.518;7.318;2024-01-25T05:58:17;33.50;;;9.10;;
3916;SDS011;1973;50.518;7.318;2024-01-25T06:00:44;35.60;;;8.37;;
3916;SDS011;1973;50.518;7.318;2024-01-25T06:03:10;29.03;;;7.20;;
3916;SDS011;1973;50.518;7.318;2024-01-25T06:05:37;32.80;;;8.43;;
3916;SDS011;1973;50.518;7.318;2024-01-25T06:08:04;28.57;;;8.43;;
3916;SDS011;1973;50.518;7.318;2024-01-25T06:10:31;36.53;;;10.23;;
3916;SDS011;1973;50.518;7.318;2024-01-25T06:12:57;38.60;;;8.77;;
3916;SDS011;1973;50.518;7.318;2024-01-25T06:15:24;28.03;;;7.83;;
3916;SDS011;1973;50.518;7.318;2024-01-25T06:17:50;31.73;;;9.30;;
3916;SDS011;1973;50.518;7.318;2024-01-25T06:20:17;22.17;;;8.10;;
3916;SDS011;1973;50.518;7.318;2024-01-25T06:22:44;29.00;;;8.20;;
3916;SDS011;1973;50.518;7.318;2024-01-25T06:25:10;31.30;;;9.70;;
3916;SDS011;1973;50.518;7.318;2024-01-25T06:27:37;29.17;;;9.90;;
3916;SDS011;1973;50.518;7.318;2024-01-25T06:30:04;26.27;;;10.37;;
3916;SDS011;1973;50.518;7.318;2024-01-25T06:32:31;30.33;;;9.90;;
3916;SDS011;1973;50.518;7.318;2024-01-25T06:34:57;34.37;;;10.00;;
3916;SDS011;1973;50.518;7.318;2024-01-25T06:37:24;27.50;;;8.20;;
3916;SDS011;1973;50.518;7.318;2024-01-25T06:39:51;27.93;;;9.13;;
3916;SDS011;1973;50.518;7.318;2024-01-25T06:42:17;28.87;;;8.60;;
3916;SDS011;1973;50.518;7.318;2024-01-25T06:44:44;32.07;;;8.10;;
3916;SDS011;1973;50.518;7.318;2024-01-25T06:47:11;22.63;;;8.00;;
3916;SDS011;1973;50.518;7.318;2024-01-25T06:49:37;31.47;;;8.30;;
3916;SDS011;1973;50.518;7.318;2024-01-25T06:52:04;29.60;;;8.43;;
3916;SDS011;1973;50.518;7.318;2024-01-25T06:54:31;30.60;;;7.53;;
3916;SDS011;1973;50.518;7.318;2024-01-25T06:56:58;34.43;;;8.40;;
3916;SDS011;1973;50.518;7.318;2024-01-25T06:59:24;46.03;;;9.50;;
3916;SDS011;1973;50.518;7.318;2024-01-25T07:01:51;35.43;;;8.93;;
3916;SDS011;1973;50.518;7.318;2024-01-25T07:04:18;20.50;;;8.20;;
3916;SDS011;1973;50.518;7.318;2024-01-25T07:06:45;25.77;;;7.80;;
3916;SDS011;1973;50.518;7.318;2024-01-25T07:09:12;30.17;;;7.60;;
3916;SDS011;1973;50.518;7.318;2024-01-25T07:11:39;26.27;;;7.17;;
3916;SDS011;1973;50.518;7.318;2024-01-25T07:14:06;26.53;;;7.30;;
3916;SDS011;1973;50.518;7.318;2024-01-25T07:16:33;31.67;;;8.50;;
3916;SDS011;1973;50.518;7.318;2024-01-25T07:18:59;32.93;;;8.40;;
3916;SDS011;1973;50.518;7.318;2024-01-25T07:21:26;28.20;;;8.50;;
3916;SDS011;1973;50.518;7.318;2024-01-25T07:23:53;25.30;;;8.93;;
3916;SDS011;1973;50.518;7.318;2024-01-25T07:26:20;29.37;;;9.50;;
3916;SDS011;1973;50.518;7.318;2024-01-25T07:28:48;20.10;;;8.00;;
3916;SDS011;1973;50.518;7.318;2024-01-25T07:31:15;28.73;;;7.27;;
3916;SDS011;1973;50.518;7.318;2024-01-25T07:33:42;24.57;;;7.33;;
3916;SDS011;1973;50.518;7.318;2024-01-25T07:36:09;26.60;;;7.30;;
3916;SDS011;1973;50.518;7.318;2024-01-25T07:38:36;29.03;;;8.00;;
3916;SDS011;1973;50.518;7.318;2024-01-25T07:41:02;36.40;;;8.80;;
3916;SDS011;1973;50.518;7.318;2024-01-25T07:43:30;20.43;;;8.30;;
3916;SDS011;1973;50.518;7.318;2024-01-25T07:45:56;27.10;;;10.30;;
3916;SDS011;1973;50.518;7.318;2024-01-25T07:48:23;27.60;;;8.60;;
3916;SDS011;1973;50.518;7.318;2024-01-25T07:50:49;28.07;;;9.20;;
3916;SDS011;1973;50.518;7.318;2024-01-25T07:53:16;27.27;;;9.70;;
3916;SDS011;1973;50.518;7.318;2024-01-25T07:55:44;31.10;;;10.00;;
3916;SDS011;1973;50.518;7.318;2024-01-25T07:58:11;23.90;;;9.00;;
3916;SDS011;1973;50.518;7.318;2024-01-25T08:00:38;25.23;;;8.40;;
3916;SDS011;1973;50.518;7.318;2024-01-25T08:03:05;26.23;;;8.37;;
3916;SDS011;1973;50.518;7.318;2024-01-25T08:05:31;25.77;;;8.60;;
3916;SDS011;1973;50.518;7.318;2024-01-25T08:08:10;20.40;;;7.83;;
3916;SDS011;1973;50.518;7.318;2024-01-25T08:10:37;28.03;;;8.90;;
3916;SDS011;1973;50.518;7.318;2024-01-25T08:13:03;28.93;;;8.77;;
3916;SDS011;1973;50.518;7.318;2024-01-25T08:15:33;21.80;;;8.20;;
3916;SDS011;1973;50.518;7.318;2024-01-25T08:18:00;26.20;;;8.60;;
3916;SDS011;1973;50.518;7.318;2024-01-25T08:20:27;26.17;;;10.50;;
3916;SDS011;1973;50.518;7.318;2024-01-25T08:22:54;31.60;;;9.83;;
3916;SDS011;1973;50.518;7.318;2024-01-25T08:25:20;24.67;;;9.20;;
3916;SDS011;1973;50.518;7.318;2024-01-25T08:27:47;26.47;;;7.57;;
3916;SDS011;1973;50.518;7.318;2024-01-25T08:30:14;25.20;;;7.20;;
3916;SDS011;1973;50.518;7.318;2024-01-25T08:32:40;29.07;;;8.40;;
3916;SDS011;1973;50.518;7.318;2024-01-25T08:35:07;18.60;;;6.97;;
3916;SDS011;1973;50.518;7.318;2024-01-25T08:37:34;23.23;;;7.90;;
3916;SDS011;1973;50.518;7.318;2024-01-25T08:40:04;25.60;;;7.90;;
3916;SDS011;1973;50.518;7.318;2024-01-25T08:42:33;20.53;;;8.37;;
3916;SDS011;1973;50.518;7.318;2024-01-25T08:44:59;19.97;;;7.67;;
3916;SDS011;1973;50.518;7.318;2024-01-25T08:47:26;34.17;;;7.30;;
3916;SDS011;1973;50.518;7.318;2024-01-25T08:49:53;19.63;;;7.37;;
3916;SDS011;1973;50.518;7.318;2024-01-25T08:52:20;26.73;;;7.87;;
3916;SDS011;1973;50.518;7.318;2024-01-25T08:54:47;22.07;;;7.50;;
3916;SDS011;1973;50.518;7.318;2024-01-25T08:57:13;26.63;;;7.83;;
3916;SDS011;1973;50.518;7.318;2024-01-25T08:59:41;24.60;;;8.90;;
3916;SDS011;1973;50.518;7.318;2024-01-25T09:02:08;27.83;;;8.00;;
3916;SDS011;1973;50.518;7.318;2024-01-25T09:04:35;21.00;;;8.00;;
3916;SDS011;1973;50.518;7.318;2024-01-25T09:07:02;25.50;;;8.17;;
3916;SDS011;1973;50.518;7.318;2024-01-25T09:09:29;16.50;;;6.77;;
3916;SDS011;1973;50.518;7.318;2024-01-25T09:11:55;24.57;;;6.97;;
3916;SDS011;1973;50.518;7.318;2024-01-25T09:14:22;25.20;;;8.00;;
3916;SDS011;1973;50.518;7.318;2024-01-25T09:16:49;26.50;;;9.10;;
3916;SDS011;1973;50.518;7.318;2024-01-25T09:19:16;23.33;;;8.13;;
3916;SDS011;1973;50.518;7.318;2024-01-25T09:21:43;19.23;;;8.30;;
3916;SDS011;1973;50.518;7.318;2024-01-25T09:24:10;27.63;;;9.27;;
3916;SDS011;1973;50.518;7.318;2024-01-25T09:26:36;30.63;;;9.67;;
3916;SDS011;1973;50.518;7.318;2024-01-25T09:29:03;28.73;;;10.40;;
3916;SDS011;1973;50.518;7.318;2024-01-25T09:31:31;35.67;;;10.17;;
3916;SDS011;1973;50.518;7.318;2024-01-25T09:33:57;21.57;;;7.93;;
3916;SDS011;1973;50.518;7.318;2024-01-25T09:36:24;30.43;;;9.47;;
3916;SDS011;1973;50.518;7.318;2024-01-25T09:38:51;23.17;;;8.80;;
3916;SDS011;1973;50.518;7.318;2024-01-25T09:41:18;23.47;;;8.10;;
3916;SDS011;1973;50.518;7.318;2024-01-25T09:43:45;27.00;;;8.53;;
3916;SDS011;1973;50.518;7.318;2024-01-25T09:46:13;26.13;;;8.50;;
3916;SDS011;1973;50.518;7.318;2024-01-25T09:48:42;25.57;;;8.90;;
3916;SDS011;1973;50.518;7.318;2024-01-25T09:51:13;34.43;;;9.63;;
3916;SDS011;1973;50.518;7.318;2024-01-25T09:53:40;21.30;;;8.23;;
3916;SDS011;1973;50.518;7.318;2024-01-25T09:56:09;26.57;;;8.10;;
3916;SDS011;1973;50.518;7.318;2024-01-25T09:58:43;24.30;;;8.80;;
3916;SDS011;1973;50.518;7.318;2024-01-25T10:01:12;30.90;;;9.10;;
3916;SDS011;1973;50.518;7.318;2024-01-25T10:03:46;31.43;;;9.87;;
3916;SDS011;1973;50.518;7.318;2024-01-25T10:06:13;22.07;;;7.30;;
3916;SDS011;1973;50.518;7.318;2024-01-25T10:08:42;24.43;;;7.50;;
3916;SDS011;1973;50.518;7.318;2024-01-25T10:11:09;25.37;;;7.90;;
3916;SDS011;1973;50.518;7.318;2024-01-25T10:13:41;24.53;;;8.33;;
3916;SDS011;1973;50.518;7.318;2024-01-25T10:16:14;29.40;;;8.37;;
3916;SDS011;1973;50.518;7.318;2024-01-25T10:18:43;26.37;;;8.63;;
3916;SDS011;1973;50.518;7.318;2024-01-25T10:21:12;24.20;;;7.60;;
3916;SDS011;1973;50.518;7.318;2024-01-25T10:23:43;20.60;;;7.50;;
3916;SDS011;1973;50.518;7.318;2024-01-25T10:26:12;24.57;;;9.33;;
3916;SDS011;1973;50.518;7.318;2024-01-25T10:28:39;39.47;;;12.47;;
3916;SDS011;1973;50.518;7.318;2024-01-25T10:31:06;32.40;;;10.60;;
3916;SDS011;1973;50.518;7.318;2024-01-25T10:33:33;27.00;;;9.70;;
3916;SDS011;1973;50.518;7.318;2024-01-25T10:36:02;32.37;;;9.33;;
3916;SDS011;1973;50.518;7.318;2024-01-25T10:38:30;24.87;;;8.77;;
3916;SDS011;1973;50.518;7.318;2024-01-25T10:41:02;19.73;;;7.93;;
3916;SDS011;1973;50.518;7.318;2024-01-25T10:43:30;23.73;;;7.53;;
3916;SDS011;1973;50.518;7.318;2024-01-25T10:45:59;22.50;;;6.40;;
3916;SDS011;1973;50.518;7.318;2024-01-25T10:48:30;19.77;;;6.40;;
3916;SDS011;1973;50.518;7.318;2024-01-25T10:50:57;22.13;;;6.27;;
3916;SDS011;1973;50.518;7.318;2024-01-25T10:53:29;23.27;;;6.93;;
3916;SDS011;1973;50.518;7.318;2024-01-25T10:55:58;24.43;;;7.63;;
3916;SDS011;1973;50.518;7.318;2024-01-25T10:58:29;17.00;;;6.70;;
3916;SDS011;1973;50.518;7.318;2024-01-25T11:01:07;28.57;;;7.60;;
3916;SDS011;1973;50.518;7.318;2024-01-25T11:03:41;18.93;;;7.27;;
3916;SDS011;1973;50.518;7.318;2024-01-25T11:06:09;17.30;;;6.63;;
3916;SDS011;1973;50.518;7.318;2024-01-25T11:08:39;24.33;;;6.30;;
3916;SDS011;1973;50.518;7.318;2024-01-25T11:11:06;20.27;;;7.03;;
3916;SDS011;1973;50.518;7.318;2024-01-25T11:13:34;24.80;;;7.03;;
3916;SDS011;1973;50.518;7.318;2024-01-25T11:16:11;22.50;;;6.40;;
3916;SDS011;1973;50.518;7.318;2024-01-25T11:18:54;21.40;;;6.30;;
3916;SDS011;1973;50.518;7.318;2024-01-25T11:21:43;17.97;;;6.67;;
3916;SDS011;1973;50.518;7.318;2024-01-25T11:24:12;25.07;;;6.80;;
3916;SDS011;1973;50.518;7.318;2024-01-25T11:26:40;27.10;;;6.20;;
3916;SDS011;1973;50.518;7.318;2024-01-25T11:29:09;19.90;;;5.50;;
3916;SDS011;1973;50.518;7.318;2024-01-25T11:31:35;16.57;;;5.47;;
3916;SDS011;1973;50.518;7.318;2024-01-25T11:34:02;21.37;;;5.90;;
3916;SDS011;1973;50.518;7.318;2024-01-25T11:36:29;18.30;;;4.57;;
3916;SDS011;1973;50.518;7.318;2024-01-25T11:38:57;18.83;;;6.77;;
3916;SDS011;1973;50.518;7.318;2024-01-25T11:41:24;27.70;;;7.27;;
3916;SDS011;1973;50.518;7.318;2024-01-25T11:43:52;17.67;;;6.60;;
3916;SDS011;1973;50.518;7.318;2024-01-25T11:46:19;18.90;;;6.03;;
3916;SDS011;1973;50.518;7.318;2024-01-25T11:48:45;15.00;;;5.27;;
3916;SDS011;1973;50.518;7.318;2024-01-25T11:51:12;14.70;;;5.10;;
3916;SDS011;1973;50.518;7.318;2024-01-25T11:53:39;17.80;;;6.50;;
3916;SDS011;1973;50.518;7.318;2024-01-25T11:56:09;13.57;;;5.70;;
3916;SDS011;1973;50.518;7.318;2024-01-25T11:58:38;16.80;;;5.33;;
3916;SDS011;1973;50.518;7.318;2024-01-25T12:01:08;21.47;;;5.83;;
3916;SDS011;1973;50.518;7.318;2024-01-25T12:03:36;14.90;;;5.57;;
3916;SDS011;1973;50.518;7.318;2024-01-25T12:06:04;20.17;;;5.70;;
3916;SDS011;1973;50.518;7.318;2024-01-25T12:08:32;22.50;;;5.40;;
3916;SDS011;1973;50.518;7.318;2024-01-25T12:11:03;14.80;;;4.23;;
3916;SDS011;1973;50.518;7.318;2024-01-25T12:13:34;20.70;;;6.07;;
3916;SDS011;1973;50.518;7.318;2024-01-25T12:16:05;21.03;;;6.30;;
3916;SDS011;1973;50.518;7.318;2024-01-25T12:18:32;15.37;;;5.17;;
3916;SDS011;1973;50.518;7.318;2024-01-25T12:20:59;19.17;;;5.30;;
3916;SDS011;1973;50.518;7.318;2024-01-25T12:23:33;15.83;;;5.63;;
3916;SDS011;1973;50.518;7.318;2024-01-25T12:26:07;17.97;;;4.80;;
3916;SDS011;1973;50.518;7.318;2024-01-25T12:28:40;12.83;;;4.47;;
3916;SDS011;1973;50.518;7.318;2024-01-25T12:31:07;15.17;;;5.17;;
3916;SDS011;1973;50.518;7.318;2024-01-25T12:33:35;18.03;;;5.53;;
3916;SDS011;1973;50.518;7.318;2024-01-25T12:36:03;16.07;;;4.13;;
3916;SDS011;1973;50.518;7.318;2024-01-25T12:38:31;15.10;;;5.00;;
3916;SDS011;1973;50.518;7.318;2024-01-25T12:41:00;16.90;;;5.10;;
3916;SDS011;1973;50.518;7.318;2024-01-25T12:43:28;15.50;;;4.57;;
3916;SDS011;1973;50.518;7.318;2024-01-25T12:45:56;13.30;;;4.73;;
3916;SDS011;1973;50.518;7.318;2024-01-25T12:48:34;16.73;;;5.30;;
3916;SDS011;1973;50.518;7.318;2024-01-25T12:51:01;14.73;;;5.07;;
3916;SDS011;1973;50.518;7.318;2024-01-25T12:53:28;18.53;;;4.90;;
3916;SDS011;1973;50.518;7.318;2024-01-25T12:55:54;16.00;;;5.20;;
3916;SDS011;1973;50.518;7.318;2024-01-25T12:58:21;18.23;;;6.50;;
3916;SDS011;1973;50.518;7.318;2024-01-25T13:00:47;21.30;;;6.40;;
3916;SDS011;1973;50.518;7.318;2024-01-25T13:03:14;20.93;;;5.53;;
3916;SDS011;1973;50.518;7.318;2024-01-25T13:05:41;14.87;;;5.10;;
3916;SDS011;1973;50.518;7.318;2024-01-25T13:08:08;16.93;;;5.73;;
3916;SDS011;1973;50.518;7.318;2024-01-25T13:10:34;17.03;;;6.07;;
3916;SDS011;1973;50.518;7.318;2024-01-25T13:13:01;15.50;;;5.10;;
3916;SDS011;1973;50.518;7.318;2024-01-25T13:15:27;16.27;;;5.00;;
3916;SDS011;1973;50.518;7.318;2024-01-25T13:17:54;16.47;;;4.60;;
3916;SDS011;1973;50.518;7.318;2024-01-25T13:20:20;18.13;;;4.83;;
3916;SDS011;1973;50.518;7.318;2024-01-25T13:22:47;14.57;;;4.77;;
3916;SDS011;1973;50.518;7.318;2024-01-25T13:25:13;20.90;;;5.10;;
3916;SDS011;1973;50.518;7.318;2024-01-25T13:27:41;23.53;;;5.90;;
3916;SDS011;1973;50.518;7.318;2024-01-25T13:30:08;15.57;;;4.33;;
3916;SDS011;1973;50.518;7.318;2024-01-25T13:32:38;14.37;;;5.20;;
3916;SDS011;1973;50.518;7.318;2024-01-25T13:35:04;12.43;;;3.90;;
3916;SDS011;1973;50.518;7.318;2024-01-25T13:37:31;15.90;;;4.53;;
3916;SDS011;1973;50.518;7.318;2024-01-25T13:39:58;15.50;;;4.47;;
3916;SDS011;1973;50.518;7.318;2024-01-25T13:42:24;15.50;;;4.20;;
3916;SDS011;1973;50.518;7.318;2024-01-25T13:44:51;17.43;;;5.37;;
3916;SDS011;1973;50.518;7.318;2024-01-25T13:47:18;15.73;;;4.87;;
3916;SDS011;1973;50.518;7.318;2024-01-25T13:49:44;15.70;;;4.87;;
3916;SDS011;1973;50.518;7.318;2024-01-25T13:52:16;12.90;;;3.90;;
3916;SDS011;1973;50.518;7.318;2024-01-25T13:54:45;16.90;;;4.50;;
3916;SDS011;1973;50.518;7.318;2024-01-25T13:57:13;14.57;;;4.80;;
3916;SDS011;1973;50.518;7.318;2024-01-25T13:59:40;12.70;;;4.07;;
3916;SDS011;1973;50.518;7.318;2024-01-25T14:02:06;18.70;;;5.10;;
3916;SDS011;1973;50.518;7.318;2024-01-25T14:04:33;11.13;;;4.40;;
3916;SDS011;1973;50.518;7.318;2024-01-25T14:07:00;18.80;;;5.10;;
3916;SDS011;1973;50.518;7.318;2024-01-25T14:09:28;15.17;;;4.70;;
3916;SDS011;1973;50.518;7.318;2024-01-25T14:11:56;13.67;;;4.23;;
3916;SDS011;1973;50.518;7.318;2024-01-25T14:14:23;18.97;;;5.47;;
3916;SDS011;1973;50.518;7.318;2024-01-25T14:16:49;20.17;;;5.43;;
3916;SDS011;1973;50.518;7.318;2024-01-25T14:19:16;14.60;;;5.70;;
3916;SDS011;1973;50.518;7.318;2024-01-25T14:21:44;20.20;;;6.27;;
3916;SDS011;1973;50.518;7.318;2024-01-25T14:24:12;14.03;;;5.00;;
3916;SDS011;1973;50.518;7.318;2024-01-25T14:26:39;22.30;;;5.63;;
3916;SDS011;1973;50.518;7.318;2024-01-25T14:29:06;17.87;;;5.90;;
3916;SDS011;1973;50.518;7.318;2024-01-25T14:31:32;18.27;;;5.50;;
3916;SDS011;1973;50.518;7.318;2024-01-25T14:33:59;13.00;;;5.37;;
3916;SDS011;1973;50.518;7.318;2024-01-25T14:36:26;13.97;;;4.20;;
3916;SDS011;1973;50.518;7.318;2024-01-25T14:38:52;17.40;;;5.37;;
3916;SDS011;1973;50.518;7.318;2024-01-25T14:41:19;19.80;;;5.63;;
3916;SDS011;1973;50.518;7.318;2024-01-25T14:43:45;18.17;;;5.67;;
3916;SDS011;1973;50.518;7.318;2024-01-25T14:46:12;13.73;;;5.00;;
3916;SDS011;1973;50.518;7.318;2024-01-25T14:48:40;20.57;;;5.20;;
3916;SDS011;1973;50.518;7.318;2024-01-25T14:51:06;19.70;;;6.13;;
3916;SDS011;1973;50.518;7.318;2024-01-25T14:53:33;18.47;;;4.97;;
3916;SDS011;1973;50.518;7.318;2024-01-25T14:55:59;13.93;;;4.30;;
3916;SDS011;1973;50.518;7.318;2024-01-25T14:58:27;15.23;;;5.30;;
3916;SDS011;1973;50.518;7.318;2024-01-25T15:00:55;17.50;;;5.87;;
3916;SDS011;1973;50.518;7.318;2024-01-25T15:03:21;12.70;;;5.07;;